Time;durP1;ratioP1;P1;durP2;ratioP2;P2;SDS_P1;SDS_P2;PMS_P1;PMS_P2;Temp;Humidity;BMP_temperature;BMP_pressure;BME280_temperature;BME280_humidity;BME280_pressure;Samples;Min_cycle;Max_cycle;Signal;HPM_P1;HPM_P2
2022/07/12 00:01:35;;;;;;;0.10;0.10;;;;;;;;;;6199042;22;20348;-91
2022/07/12 00:04:01;;;;;;;0.10;0.10;;;;;;;;;;6224363;22;20007;-91
2022/07/12 00:06:27;;;;;;;0.10;0.10;;;;;;;;;;6224523;22;20514;-91
2022/07/12 00:08:53;;;;;;;0.10;0.10;;;;;;;;;;6199635;22;20012;-91
2022/07/12 00:11:19;;;;;;;0.10;0.10;;;;;;;;;;6198827;22;20023;-90
2022/07/12 00:13:45;;;;;;;0.10;0.10;;;;;;;;;;6199091;22;20022;-90
2022/07/12 00:16:11;;;;;;;0.20;0.20;;;;;;;;;;6199211;22;20007;-91
2022/07/12 00:18:37;;;;;;;0.10;0.10;;;;;;;;;;6224046;22;20016;-91
2022/07/12 00:21:04;;;;;;;0.10;0.10;;;;;;;;;;6199125;22;20015;-91
2022/07/12 00:23:30;;;;;;;0.10;0.10;;;;;;;;;;6223735;22;20326;-89
2022/07/12 00:25:56;;;;;;;0.10;0.10;;;;;;;;;;6198863;22;20042;-90
2022/07/12 00:28:22;;;;;;;0.10;0.10;;;;;;;;;;6198913;22;20090;-92
2022/07/12 00:30:48;;;;;;;0.10;0.10;;;;;;;;;;6248362;22;20018;-92
2022/07/12 00:33:16;;;;;;;0.10;0.10;;;;;;;;;;6198747;22;20012;-94
2022/07/12 00:35:43;;;;;;;0.10;0.10;;;;;;;;;;6225022;22;20387;-93
2022/07/12 00:38:10;;;;;;;0.10;0.10;;;;;;;;;;6224913;22;20062;-93
2022/07/12 00:40:36;;;;;;;0.10;0.10;;;;;;;;;;6223485;22;20063;-92
2022/07/12 00:43:02;;;;;;;0.10;0.10;;;;;;;;;;6199901;22;20011;-92
2022/07/12 00:45:28;;;;;;;0.10;0.10;;;;;;;;;;6199369;22;20518;-92
2022/07/12 00:47:55;;;;;;;0.10;0.10;;;;;;;;;;6224527;22;20015;-93
2022/07/12 00:50:22;;;;;;;0.10;0.10;;;;;;;;;;6223167;22;20015;-92
2022/07/12 00:52:48;;;;;;;0.10;0.10;;;;;;;;;;6198206;22;20099;-92
2022/07/12 00:55:15;;;;;;;0.10;0.10;;;;;;;;;;6198557;22;20008;-92
2022/07/12 00:57:43;;;;;;;0.10;0.10;;;;;;;;;;6250209;22;20007;-93
2022/07/12 01:00:11;;;;;;;0.10;0.10;;;;;;;;;;6203041;22;20019;-93
2022/07/12 01:02:38;;;;;;;0.10;0.10;;;;;;;;;;6228986;22;20019;-94
2022/07/12 01:05:04;;;;;;;0.10;0.10;;;;;;;;;;6200503;22;20016;-92
2022/07/12 01:07:30;;;;;;;0.10;0.10;;;;;;;;;;6202479;22;20074;-90
2022/07/12 01:09:56;;;;;;;0.10;0.10;;;;;;;;;;6198599;22;20016;-91
2022/07/12 01:12:22;;;;;;;0.10;0.10;;;;;;;;;;6198384;22;20174;-91
2022/07/12 01:14:49;;;;;;;0.10;0.10;;;;;;;;;;6198228;22;20011;-91
2022/07/12 01:17:15;;;;;;;0.10;0.10;;;;;;;;;;6198506;22;20019;-91
2022/07/12 01:19:41;;;;;;;0.10;0.10;;;;;;;;;;6223205;22;20011;-91
2022/07/12 01:22:09;;;;;;;0.10;0.10;;;;;;;;;;6198470;22;20062;-91
2022/07/12 01:24:35;;;;;;;0.10;0.10;;;;;;;;;;6198703;22;20012;-91
2022/07/12 01:27:02;;;;;;;0.10;0.10;;;;;;;;;;6198437;22;20023;-91
2022/07/12 01:29:28;;;;;;;0.10;0.10;;;;;;;;;;6198690;22;20464;-91
2022/07/12 01:31:54;;;;;;;0.10;0.10;;;;;;;;;;6223004;22;20007;-91
2022/07/12 01:34:21;;;;;;;0.10;0.10;;;;;;;;;;6223389;22;20023;-91
2022/07/12 01:36:47;;;;;;;0.10;0.10;;;;;;;;;;6198193;22;20012;-91
2022/07/12 01:39:13;;;;;;;0.30;0.30;;;;;;;;;;6198158;22;20008;-91
2022/07/12 01:41:39;;;;;;;0.10;0.10;;;;;;;;;;6198592;22;20012;-91
2022/07/12 01:44:05;;;;;;;0.10;0.10;;;;;;;;;;6198343;22;20527;-90
2022/07/12 01:46:31;;;;;;;0.10;0.10;;;;;;;;;;6198110;22;20058;-92
2022/07/12 01:48:57;;;;;;;0.10;0.10;;;;;;;;;;6197986;22;20038;-91
2022/07/12 01:51:23;;;;;;;0.10;0.10;;;;;;;;;;6197696;22;20042;-92
2022/07/12 01:53:49;;;;;;;0.10;0.10;;;;;;;;;;6198151;22;20039;-91
2022/07/12 01:56:15;;;;;;;0.10;0.10;;;;;;;;;;6198092;22;20199;-91
2022/07/12 01:58:41;;;;;;;0.10;0.10;;;;;;;;;;6198311;22;20091;-91
2022/07/12 02:01:08;;;;;;;0.10;0.10;;;;;;;;;;6223550;22;20020;-90
2022/07/12 02:03:36;;;;;;;0.10;0.10;;;;;;;;;;6198679;22;20015;-91
2022/07/12 02:06:02;;;;;;;0.10;0.10;;;;;;;;;;6198516;22;20097;-93
2022/07/12 02:08:28;;;;;;;0.10;0.10;;;;;;;;;;6197901;22;20062;-93
2022/07/12 02:10:54;;;;;;;0.10;0.10;;;;;;;;;;6197740;22;20018;-91
2022/07/12 02:13:20;;;;;;;0.10;0.10;;;;;;;;;;6222634;22;20016;-91
2022/07/12 02:15:47;;;;;;;0.10;0.10;;;;;;;;;;6197990;22;20043;-91
2022/07/12 02:18:13;;;;;;;0.10;0.10;;;;;;;;;;6223315;22;20113;-92
2022/07/12 02:20:39;;;;;;;0.10;0.10;;;;;;;;;;6198623;22;20099;-91
2022/07/12 02:23:05;;;;;;;0.10;0.10;;;;;;;;;;6198883;22;20022;-92
2022/07/12 02:25:31;;;;;;;0.10;0.10;;;;;;;;;;6198657;22;20008;-92
2022/07/12 02:27:57;;;;;;;0.10;0.10;;;;;;;;;;6197966;22;20364;-92
2022/07/12 02:30:23;;;;;;;0.10;0.10;;;;;;;;;;6199255;22;20091;-91
2022/07/12 02:32:51;;;;;;;0.10;0.10;;;;;;;;;;6192946;23;20024;-91
2022/07/12 02:35:17;;;;;;;0.10;0.10;;;;;;;;;;6193808;23;20043;-91
2022/07/12 02:37:43;;;;;;;0.10;0.10;;;;;;;;;;6192841;23;20464;-92
2022/07/12 02:42:56;;;;;;;0.10;0.10;;;;;;;;;;6218423;23;20016;-92
2022/07/12 02:45:22;;;;;;;0.10;0.10;;;;;;;;;;6193275;23;20008;-92
2022/07/12 02:47:47;;;;;;;0.10;0.10;;;;;;;;;;6193649;23;20016;-92
2022/07/12 02:50:14;;;;;;;0.10;0.10;;;;;;;;;;6194981;23;20016;-92
2022/07/12 02:52:40;;;;;;;0.10;0.10;;;;;;;;;;6194538;23;20023;-92
2022/07/12 02:55:07;;;;;;;0.10;0.10;;;;;;;;;;6195547;23;20012;-92
2022/07/12 02:57:32;;;;;;;0.10;0.10;;;;;;;;;;6194989;23;20012;-91
2022/07/12 03:00:00;;;;;;;0.10;0.10;;;;;;;;;;6194596;23;20126;-91
2022/07/12 03:02:26;;;;;;;0.10;0.10;;;;;;;;;;6194501;23;20023;-90
2022/07/12 03:04:52;;;;;;;0.10;0.10;;;;;;;;;;6194235;23;20058;-91
2022/07/12 03:07:17;;;;;;;0.10;0.10;;;;;;;;;;6194806;23;20380;-92
2022/07/12 03:09:44;;;;;;;0.10;0.10;;;;;;;;;;6194829;23;20016;-92
2022/07/12 03:12:12;;;;;;;0.10;0.10;;;;;;;;;;6194494;23;20465;-93
2022/07/12 03:14:38;;;;;;;0.10;0.10;;;;;;;;;;6194743;23;20012;-92
2022/07/12 03:17:04;;;;;;;0.10;0.10;;;;;;;;;;6194522;23;20060;-92
2022/07/12 03:19:30;;;;;;;0.10;0.10;;;;;;;;;;6194906;23;20059;-91
2022/07/12 03:21:56;;;;;;;0.10;0.10;;;;;;;;;;6194827;23;20026;-91
2022/07/12 03:24:22;;;;;;;0.10;0.10;;;;;;;;;;6194951;23;20031;-91
2022/07/12 03:26:48;;;;;;;0.10;0.10;;;;;;;;;;6194953;23;20038;-91
2022/07/12 03:29:15;;;;;;;0.10;0.10;;;;;;;;;;6194636;23;20070;-92
2022/07/12 03:31:41;;;;;;;0.10;0.10;;;;;;;;;;6194905;23;20016;-91
2022/07/12 03:34:08;;;;;;;0.10;0.10;;;;;;;;;;6194254;23;20012;-93
2022/07/12 03:36:34;;;;;;;0.10;0.10;;;;;;;;;;6171218;23;20464;-93
2022/07/12 03:39:02;;;;;;;0.10;0.10;;;;;;;;;;6170013;23;20015;-92
2022/07/12 03:41:29;;;;;;;0.10;0.10;;;;;;;;;;6195264;23;20016;-93
2022/07/12 03:43:55;;;;;;;0.10;0.10;;;;;;;;;;6195358;23;20020;-93
2022/07/12 03:46:25;;;;;;;0.10;0.10;;;;;;;;;;6170838;23;20012;-94
2022/07/12 03:48:51;;;;;;;0.10;0.10;;;;;;;;;;6170872;23;20051;-95
2022/07/12 03:51:17;;;;;;;0.10;0.10;;;;;;;;;;6171561;23;20047;-92
2022/07/12 03:53:43;;;;;;;0.10;0.10;;;;;;;;;;6172219;23;20019;-94
2022/07/12 03:57:13;;;;;;;0.10;0.10;;;;;;;;;;6170947;23;20433;-93
2022/07/12 03:59:00;;;;;;;0.10;0.10;;;;;;;;;;6219521;23;20349;-93
2022/07/12 04:01:26;;;;;;;0.10;0.10;;;;;;;;;;6170677;23;20055;-93
2022/07/12 04:03:52;;;;;;;0.10;0.10;;;;;;;;;;6170759;23;20012;-93
2022/07/12 04:06:18;;;;;;;0.10;0.10;;;;;;;;;;6170683;23;20576;-94
2022/07/12 04:08:47;;;;;;;0.30;0.30;;;;;;;;;;6169901;23;20016;-92
2022/07/12 04:11:13;;;;;;;0.10;0.10;;;;;;;;;;6194854;23;20020;-91
2022/07/12 04:13:39;;;;;;;0.10;0.10;;;;;;;;;;6169652;23;20012;-91
2022/07/12 04:16:05;;;;;;;0.10;0.10;;;;;;;;;;6194184;23;20016;-91
2022/07/12 04:18:32;;;;;;;0.10;0.10;;;;;;;;;;6169987;23;20012;-92
2022/07/12 04:20:58;;;;;;;0.10;0.10;;;;;;;;;;6169653;23;20441;-93
2022/07/12 04:23:24;;;;;;;0.10;0.10;;;;;;;;;;6174260;23;20016;-93
2022/07/12 04:25:50;;;;;;;0.10;0.10;;;;;;;;;;6169853;23;20012;-94
2022/07/12 04:28:16;;;;;;;0.10;0.10;;;;;;;;;;6170342;23;20457;-93
2022/07/12 04:30:44;;;;;;;0.10;0.10;;;;;;;;;;6170449;23;20051;-94
2022/07/12 04:33:12;;;;;;;0.10;0.10;;;;;;;;;;6176823;23;20016;-94
2022/07/12 04:35:38;;;;;;;0.10;0.10;;;;;;;;;;6195299;23;20020;-93
2022/07/12 04:38:04;;;;;;;0.10;0.10;;;;;;;;;;6193582;22;20083;-93
2022/07/12 04:40:30;;;;;;;0.10;0.10;;;;;;;;;;6193789;23;20012;-92
2022/07/12 04:42:56;;;;;;;0.10;0.10;;;;;;;;;;6193769;23;20537;-92
2022/07/12 04:45:23;;;;;;;0.10;0.10;;;;;;;;;;6193919;23;20016;-92
2022/07/12 04:47:49;;;;;;;0.10;0.10;;;;;;;;;;6194031;23;20043;-92
2022/07/12 04:50:15;;;;;;;0.10;0.10;;;;;;;;;;6194410;23;20023;-92
2022/07/12 04:52:41;;;;;;;0.10;0.10;;;;;;;;;;6194320;23;20023;-92
2022/07/12 04:55:10;;;;;;;0.10;0.10;;;;;;;;;;6194038;23;20008;-93
2022/07/12 04:57:38;;;;;;;0.10;0.10;;;;;;;;;;6193726;23;20047;-93
2022/07/12 05:00:05;;;;;;;0.10;0.10;;;;;;;;;;6193914;23;20019;-94
2022/07/12 05:02:31;;;;;;;0.10;0.10;;;;;;;;;;6194207;23;20016;-95
2022/07/12 05:04:57;;;;;;;0.10;0.10;;;;;;;;;;6194541;23;20016;-93
2022/07/12 05:07:23;;;;;;;0.10;0.10;;;;;;;;;;6193499;23;20059;-92
2022/07/12 05:09:53;;;;;;;0.10;0.10;;;;;;;;;;6192949;23;20023;-94
2022/07/12 05:12:20;;;;;;;0.10;0.10;;;;;;;;;;6193090;23;20023;-93
2022/07/12 05:14:46;;;;;;;0.10;0.10;;;;;;;;;;6193576;23;20062;-89
2022/07/12 05:17:12;;;;;;;0.20;0.20;;;;;;;;;;6194465;23;20031;-90
2022/07/12 05:19:41;;;;;;;0.10;0.10;;;;;;;;;;6194205;23;20096;-94
2022/07/12 05:22:07;;;;;;;0.10;0.10;;;;;;;;;;6194304;23;20096;-93
2022/07/12 05:24:36;;;;;;;0.10;0.10;;;;;;;;;;6193802;23;20066;-94
2022/07/12 05:27:02;;;;;;;0.10;0.10;;;;;;;;;;6193525;23;20390;-93
2022/07/12 05:29:28;;;;;;;0.10;0.10;;;;;;;;;;6194187;23;20016;-92
2022/07/12 05:31:58;;;;;;;0.10;0.10;;;;;;;;;;6193068;23;20464;-94
2022/07/12 05:34:24;;;;;;;0.10;0.10;;;;;;;;;;6192869;23;20012;-91
2022/07/12 05:36:50;;;;;;;0.10;0.10;;;;;;;;;;6168931;23;20050;-91
2022/07/12 05:39:16;;;;;;;0.25;0.25;;;;;;;;;;6168752;23;20012;-90
2022/07/12 05:41:46;;;;;;;0.10;0.10;;;;;;;;;;6169087;23;20051;-92
2022/07/12 05:44:12;;;;;;;0.10;0.10;;;;;;;;;;6170335;23;20012;-93
2022/07/12 05:46:40;;;;;;;0.20;0.20;;;;;;;;;;6170031;23;20302;-93
2022/07/12 05:49:06;;;;;;;0.10;0.10;;;;;;;;;;6169838;23;20404;-93
2022/07/12 05:54:17;;;;;;;0.10;0.10;;;;;;;;;;6198277;23;20067;-95
2022/07/12 05:56:45;;;;;;;0.10;0.10;;;;;;;;;;6169024;23;20388;-93
2022/07/12 05:59:12;;;;;;;0.10;0.10;;;;;;;;;;6163750;23;20103;-94
2022/07/12 06:01:38;;;;;;;0.10;0.10;;;;;;;;;;6164063;23;20023;-93
2022/07/12 06:04:05;;;;;;;0.10;0.10;;;;;;;;;;6162571;23;20334;-94
2022/07/12 06:06:32;;;;;;;0.10;0.10;;;;;;;;;;6164529;23;20016;-94
2022/07/12 06:08:58;;;;;;;0.10;0.10;;;;;;;;;;6177762;23;20012;-95
2022/07/12 06:11:24;;;;;;;0.20;0.20;;;;;;;;;;6193315;23;20023;-89
2022/07/12 06:13:50;;;;;;;0.10;0.10;;;;;;;;;;6168819;23;20014;-94
2022/07/12 06:16:16;;;;;;;0.10;0.10;;;;;;;;;;6194016;23;20081;-93
2022/07/12 06:18:42;;;;;;;0.10;0.10;;;;;;;;;;6193423;23;20427;-93
2022/07/12 06:21:08;;;;;;;0.10;0.10;;;;;;;;;;6193264;23;20062;-93
2022/07/12 06:23:36;;;;;;;0.10;0.10;;;;;;;;;;6193342;23;20016;-92
2022/07/12 06:26:02;;;;;;;0.10;0.10;;;;;;;;;;6194443;23;20023;-92
2022/07/12 06:28:28;;;;;;;0.10;0.10;;;;;;;;;;6193171;23;20486;-93
2022/07/12 06:30:55;;;;;;;0.10;0.10;;;;;;;;;;6193327;23;20016;-94
2022/07/12 06:33:21;;;;;;;0.10;0.10;;;;;;;;;;6218020;23;20018;-91
2022/07/12 06:35:47;;;;;;;0.10;0.10;;;;;;;;;;6168624;23;20019;-92
2022/07/12 06:38:13;;;;;;;0.10;0.10;;;;;;;;;;6193036;23;20013;-92
2022/07/12 06:40:39;;;;;;;0.10;0.10;;;;;;;;;;6191865;23;20014;-92
2022/07/12 06:43:09;;;;;;;0.10;0.10;;;;;;;;;;6192792;23;20059;-92
2022/07/12 06:45:35;;;;;;;0.10;0.10;;;;;;;;;;6168352;23;20412;-93
2022/07/12 06:48:01;;;;;;;0.10;0.10;;;;;;;;;;6194742;23;20020;-92
2022/07/12 06:50:27;;;;;;;0.10;0.10;;;;;;;;;;6193718;23;20019;-93
2022/07/12 06:52:53;;;;;;;0.10;0.10;;;;;;;;;;6192580;23;20016;-92
2022/07/12 06:55:19;;;;;;;0.10;0.10;;;;;;;;;;6193201;23;20030;-92
2022/07/12 06:57:45;;;;;;;0.10;0.10;;;;;;;;;;6168417;23;20008;-93
2022/07/12 07:00:11;;;;;;;0.10;0.10;;;;;;;;;;6215588;22;20087;-93
2022/07/12 07:02:40;;;;;;;0.10;0.10;;;;;;;;;;6195473;22;20279;-92
2022/07/12 07:05:08;;;;;;;0.10;0.10;;;;;;;;;;6192694;23;20016;-92
2022/07/12 07:07:34;;;;;;;0.10;0.10;;;;;;;;;;6217138;22;20488;-92
2022/07/12 07:10:00;;;;;;;0.10;0.10;;;;;;;;;;6223055;22;20016;-92
2022/07/12 07:12:26;;;;;;;0.10;0.10;;;;;;;;;;6222825;22;20345;-92
2022/07/12 07:14:52;;;;;;;0.10;0.10;;;;;;;;;;6222896;22;20012;-92
2022/07/12 07:17:19;;;;;;;0.10;0.10;;;;;;;;;;6223212;22;20329;-93
2022/07/12 07:19:45;;;;;;;0.10;0.10;;;;;;;;;;6224583;22;20409;-92
2022/07/12 07:22:14;;;;;;;0.10;0.10;;;;;;;;;;6223251;22;20441;-93
2022/07/12 07:24:40;;;;;;;0.10;0.10;;;;;;;;;;6223647;22;20043;-91
2022/07/12 07:27:07;;;;;;;0.10;0.10;;;;;;;;;;6224337;22;20047;-95
2022/07/12 07:32:18;;;;;;;0.10;0.10;;;;;;;;;;6217569;23;20079;-91
2022/07/12 07:34:45;;;;;;;0.20;0.20;;;;;;;;;;6222907;22;20395;-90
2022/07/12 07:37:11;;;;;;;0.10;0.10;;;;;;;;;;6219674;23;20083;-90
2022/07/12 07:39:37;;;;;;;0.10;0.10;;;;;;;;;;6222141;22;20087;-93
2022/07/12 07:42:03;;;;;;;0.10;0.10;;;;;;;;;;6194741;23;20016;-90
2022/07/12 07:44:29;;;;;;;0.10;0.10;;;;;;;;;;6195954;22;20091;-93
2022/07/12 07:46:56;;;;;;;0.10;0.10;;;;;;;;;;6194316;23;20047;-92
2022/07/12 07:49:22;;;;;;;0.10;0.10;;;;;;;;;;6219036;23;20012;-91
2022/07/12 07:51:48;;;;;;;0.10;0.10;;;;;;;;;;6194232;23;20016;-89
2022/07/12 07:54:14;;;;;;;0.10;0.10;;;;;;;;;;6217384;23;20020;-93
2022/07/12 07:56:41;;;;;;;0.10;0.10;;;;;;;;;;6246445;22;20334;-92
2022/07/12 07:59:10;;;;;;;0.10;0.10;;;;;;;;;;6193992;23;20090;-92
2022/07/12 08:01:45;;;;;;;0.10;0.10;;;;;;;;;;6221752;22;20020;-92
2022/07/12 08:04:37;;;;;;;0.10;0.10;;;;;;;;;;6219157;23;20087;-92
2022/07/12 08:07:03;;;;;;;;;;;;;;;;;;6218494;22;20345;-90
2022/07/12 08:09:29;;;;;;;0.10;0.10;;;;;;;;;;6229209;22;19911;-90
2022/07/12 08:11:55;;;;;;;0.20;0.20;;;;;;;;;;6247816;23;20099;-90
2022/07/12 08:14:21;;;;;;;0.20;0.20;;;;;;;;;;6225492;23;20091;-90
2022/07/12 08:16:47;;;;;;;0.10;0.10;;;;;;;;;;6224009;23;20066;-90
2022/07/12 08:19:15;;;;;;;0.10;0.10;;;;;;;;;;6205067;23;20091;-90
2022/07/12 08:21:42;;;;;;;0.20;0.20;;;;;;;;;;6226009;22;20086;-91
2022/07/12 08:24:08;;;;;;;0.20;0.20;;;;;;;;;;6225110;22;20018;-91
2022/07/12 08:26:34;;;;;;;0.20;0.20;;;;;;;;;;6225008;22;20015;-90
2022/07/12 08:29:00;;;;;;;0.20;0.20;;;;;;;;;;6225266;22;20115;-89
2022/07/12 08:31:28;;;;;;;0.20;0.20;;;;;;;;;;6224772;22;20016;-91
2022/07/12 08:33:54;;;;;;;0.20;0.20;;;;;;;;;;6249614;22;20102;-89
2022/07/12 08:36:19;;;;;;;0.20;0.20;;;;;;;;;;6218661;23;20016;-89
2022/07/12 08:38:46;;;;;;;0.20;0.20;;;;;;;;;;6223098;22;20008;-88
2022/07/12 08:41:12;;;;;;;0.20;0.20;;;;;;;;;;6218868;23;20012;-88
2022/07/12 08:43:38;;;;;;;0.20;0.20;;;;;;;;;;6222443;22;20016;-90
2022/07/12 08:46:05;;;;;;;0.20;0.20;;;;;;;;;;6218281;23;20008;-90
2022/07/12 08:48:32;;;;;;;0.20;0.20;;;;;;;;;;6220817;22;20062;-90
2022/07/12 08:51:05;;;;;;;0.20;0.20;;;;;;;;;;6218593;23;20019;-89
2022/07/12 08:53:31;;;;;;;0.20;0.20;;;;;;;;;;6220468;22;20022;-90
2022/07/12 08:55:57;;;;;;;0.20;0.20;;;;;;;;;;6218998;23;20016;-90
2022/07/12 08:58:23;;;;;;;0.15;0.15;;;;;;;;;;6218007;22;20018;-90
2022/07/12 09:00:50;;;;;;;0.20;0.20;;;;;;;;;;6198977;22;20510;-89
2022/07/12 09:03:16;;;;;;;0.20;0.20;;;;;;;;;;6198809;22;20047;-89
2022/07/12 09:05:55;;;;;;;0.20;0.20;;;;;;;;;;6198737;22;20007;-91
2022/07/12 09:08:25;;;;;;;0.20;0.20;;;;;;;;;;6198747;22;20083;-91
2022/07/12 09:10:52;;;;;;;0.20;0.20;;;;;;;;;;6223787;22;20008;-91
2022/07/12 09:13:18;;;;;;;0.20;0.20;;;;;;;;;;6198785;22;20015;-89
2022/07/12 09:15:46;;;;;;;0.20;0.20;;;;;;;;;;6223974;22;20025;-89
2022/07/12 09:18:17;;;;;;;0.20;0.20;;;;;;;;;;6198976;22;20047;-89
2022/07/12 09:20:43;;;;;;;0.20;0.20;;;;;;;;;;6224738;22;20019;-88
2022/07/12 09:23:10;;;;;;;0.20;0.20;;;;;;;;;;6198947;22;20047;-88
2022/07/12 09:25:36;;;;;;;0.20;0.20;;;;;;;;;;6198887;22;20039;-88
2022/07/12 09:28:06;;;;;;;0.20;0.20;;;;;;;;;;6248452;22;20011;-88
2022/07/12 09:30:32;;;;;;;0.20;0.20;;;;;;;;;;6223402;22;20011;-89
2022/07/12 09:36:07;;;;;;;0.20;0.20;;;;;;;;;;6142397;22;20017;-88
2022/07/12 09:38:34;;;;;;;0.20;0.20;;;;;;;;;;6197043;22;20019;-91
2022/07/12 09:41:00;;;;;;;0.20;0.20;;;;;;;;;;6199522;22;20018;-92
2022/07/12 09:43:26;;;;;;;0.20;0.20;;;;;;;;;;6199827;22;20022;-91
2022/07/12 09:45:52;;;;;;;0.20;0.20;;;;;;;;;;6199838;22;20012;-90
2022/07/12 09:48:21;;;;;;;0.20;0.20;;;;;;;;;;6198650;22;20068;-91
2022/07/12 09:50:48;;;;;;;0.20;0.20;;;;;;;;;;6223718;22;20012;-93
2022/07/12 09:53:18;;;;;;;0.20;0.20;;;;;;;;;;6198508;22;20026;-91
2022/07/12 09:55:44;;;;;;;0.20;0.20;;;;;;;;;;6198201;22;20015;-89
2022/07/12 09:58:10;;;;;;;0.20;0.20;;;;;;;;;;6223294;22;20073;-90
2022/07/12 10:00:37;;;;;;;0.20;0.20;;;;;;;;;;6197980;22;20274;-89
2022/07/12 10:03:03;;;;;;;0.20;0.20;;;;;;;;;;6197910;22;20015;-91
2022/07/12 10:05:30;;;;;;;0.10;0.10;;;;;;;;;;6198191;22;20074;-92
2022/07/12 10:07:56;;;;;;;0.20;0.20;;;;;;;;;;6198299;22;20031;-90
2022/07/12 10:10:23;;;;;;;0.20;0.20;;;;;;;;;;6198174;22;20019;-92
2022/07/12 10:12:49;;;;;;;0.20;0.20;;;;;;;;;;6197697;22;20018;-89
2022/07/12 10:15:19;;;;;;;0.20;0.20;;;;;;;;;;6198266;22;20012;-89
2022/07/12 10:17:50;;;;;;;0.20;0.20;;;;;;;;;;6197807;22;20015;-89
2022/07/12 10:20:16;;;;;;;;;;;;;;;;;;6198652;22;20016;-88
2022/07/12 10:22:42;;;;;;;0.20;0.20;;;;;;;;;;6222688;22;19915;-88
2022/07/12 10:25:27;;;;;;;0.20;0.20;;;;;;;;;;6198301;22;20026;-88
2022/07/12 10:27:53;;;;;;;0.20;0.20;;;;;;;;;;6248246;22;20019;-90
2022/07/12 10:30:20;;;;;;;0.15;0.15;;;;;;;;;;6198171;22;20008;-90
2022/07/12 10:32:49;;;;;;;0.20;0.20;;;;;;;;;;6225000;22;20077;-93
2022/07/12 10:35:22;;;;;;;0.20;0.20;;;;;;;;;;6199112;22;20016;-90
2022/07/12 10:38:09;;;;;;;0.20;0.20;;;;;;;;;;6198310;22;20079;-92
2022/07/12 10:40:35;;;;;;;0.20;0.20;;;;;;;;;;6249604;22;20015;-91
2022/07/12 10:43:04;;;;;;;0.20;0.20;;;;;;;;;;6198656;22;20016;-91
2022/07/12 10:45:31;;;;;;;0.20;0.20;;;;;;;;;;6248375;22;20043;-91
2022/07/12 10:47:57;;;;;;;0.20;0.20;;;;;;;;;;6198274;22;20008;-90
2022/07/12 10:50:48;;;;;;;0.20;0.20;;;;;;;;;;6248221;22;20094;-88
2022/07/12 10:53:23;;;;;;;0.20;0.20;;;;;;;;;;6248564;22;20054;-89
2022/07/12 10:56:04;;;;;;;0.20;0.20;;;;;;;;;;6247933;22;20023;-89
2022/07/12 10:58:31;;;;;;;0.20;0.20;;;;;;;;;;6248405;22;20020;-88
2022/07/12 11:00:57;;;;;;;0.20;0.20;;;;;;;;;;6223117;22;20472;-88
2022/07/12 11:03:23;;;;;;;0.20;0.20;;;;;;;;;;6197874;22;20086;-90
2022/07/12 11:05:49;;;;;;;0.20;0.20;;;;;;;;;;6198247;22;20012;-89
2022/07/12 11:08:15;;;;;;;0.20;0.20;;;;;;;;;;6197485;22;20384;-88
2022/07/12 11:10:55;;;;;;;0.20;0.20;;;;;;;;;;6199808;22;20043;-88
2022/07/12 11:13:24;;;;;;;0.20;0.20;;;;;;;;;;6249879;22;20011;-88
2022/07/12 11:16:02;;;;;;;0.20;0.20;;;;;;;;;;6200554;22;20015;-88
2022/07/12 11:18:30;;;;;;;0.20;0.20;;;;;;;;;;6199337;22;20012;-88
2022/07/12 11:20:59;;;;;;;0.20;0.20;;;;;;;;;;6199609;22;20011;-89
2022/07/12 11:23:28;;;;;;;0.20;0.20;;;;;;;;;;6199575;22;20095;-91
2022/07/12 11:25:57;;;;;;;0.20;0.20;;;;;;;;;;6200010;22;20018;-90
2022/07/12 11:28:24;;;;;;;0.20;0.20;;;;;;;;;;6199709;22;20427;-90
2022/07/12 11:30:53;;;;;;;0.20;0.20;;;;;;;;;;6199572;22;20065;-90
2022/07/12 11:33:19;;;;;;;0.20;0.20;;;;;;;;;;6249525;22;20012;-91
2022/07/12 11:35:45;;;;;;;0.20;0.20;;;;;;;;;;6200177;22;20463;-93
2022/07/12 11:38:14;;;;;;;0.20;0.20;;;;;;;;;;6199615;22;20019;-95
2022/07/12 11:40:40;;;;;;;0.20;0.20;;;;;;;;;;6200503;22;20012;-92
2022/07/12 11:43:08;;;;;;;0.20;0.20;;;;;;;;;;6224773;22;20024;-92
2022/07/12 11:45:34;;;;;;;0.10;0.10;;;;;;;;;;6200306;22;20042;-92
2022/07/12 11:48:01;;;;;;;0.20;0.20;;;;;;;;;;6225186;22;20444;-93
2022/07/12 11:50:31;;;;;;;0.20;0.20;;;;;;;;;;6200531;22;20007;-96
2022/07/12 11:52:57;;;;;;;0.20;0.20;;;;;;;;;;6224300;22;20016;-93
2022/07/12 11:55:23;;;;;;;0.10;0.10;;;;;;;;;;6199608;22;20012;-90
2022/07/12 11:57:49;;;;;;;0.10;0.10;;;;;;;;;;6199385;22;20091;-91
2022/07/12 12:00:23;;;;;;;0.20;0.20;;;;;;;;;;6199349;22;20500;-90
2022/07/12 12:02:52;;;;;;;0.20;0.20;;;;;;;;;;6224625;22;20359;-92
2022/07/12 12:05:18;;;;;;;0.20;0.20;;;;;;;;;;6200110;22;20087;-91
2022/07/12 12:07:45;;;;;;;0.20;0.20;;;;;;;;;;6224523;22;20504;-92
2022/07/12 12:10:13;;;;;;;0.20;0.20;;;;;;;;;;6199289;22;20014;-92
2022/07/12 12:12:42;;;;;;;0.20;0.20;;;;;;;;;;6249607;22;20022;-93
2022/07/12 12:15:08;;;;;;;0.20;0.20;;;;;;;;;;6250236;22;20038;-91
2022/07/12 12:17:35;;;;;;;0.20;0.20;;;;;;;;;;6224529;22;20456;-90
2022/07/12 12:20:13;;;;;;;0.20;0.20;;;;;;;;;;6199151;22;20275;-90
2022/07/12 12:22:41;;;;;;;0.20;0.20;;;;;;;;;;6199637;22;20086;-94
2022/07/12 12:25:12;;;;;;;0.20;0.20;;;;;;;;;;6225257;22;20008;-92
2022/07/12 12:27:54;;;;;;;0.20;0.20;;;;;;;;;;6249219;22;20016;-92
2022/07/12 12:30:20;;;;;;;0.20;0.20;;;;;;;;;;6199586;22;20008;-94
2022/07/12 12:32:49;;;;;;;0.20;0.20;;;;;;;;;;6199304;22;20456;-92
2022/07/12 12:35:21;;;;;;;0.20;0.20;;;;;;;;;;6258610;22;20087;-96
2022/07/12 12:37:50;;;;;;;0.20;0.20;;;;;;;;;;6234257;22;20015;-92
2022/07/12 12:40:32;;;;;;;0.10;0.10;;;;;;;;;;6263743;22;20050;-96
2022/07/12 12:43:07;;;;;;;0.20;0.20;;;;;;;;;;6215629;22;20019;-89
2022/07/12 12:45:33;;;;;;;0.20;0.20;;;;;;;;;;6249589;22;20015;-91
2022/07/12 12:48:03;;;;;;;0.20;0.20;;;;;;;;;;6226070;22;20008;-94
2022/07/12 12:50:42;;;;;;;0.20;0.20;;;;;;;;;;6254529;22;20322;-91
2022/07/12 12:53:10;;;;;;;0.20;0.20;;;;;;;;;;6279946;22;20022;-91
2022/07/12 12:55:36;;;;;;;0.17;0.17;;;;;;;;;;6254696;22;20053;-90
2022/07/12 12:58:02;;;;;;;0.20;0.20;;;;;;;;;;6254096;22;20071;-90
2022/07/12 13:00:29;;;;;;;0.20;0.20;;;;;;;;;;6254232;22;20022;-90
2022/07/12 13:02:58;;;;;;;0.20;0.20;;;;;;;;;;6254118;22;20015;-90
2022/07/12 13:05:24;;;;;;;0.20;0.20;;;;;;;;;;6254295;22;20045;-90
2022/07/12 13:07:50;;;;;;;0.20;0.20;;;;;;;;;;6254600;22;20069;-91
2022/07/12 13:10:16;;;;;;;0.13;0.13;;;;;;;;;;6279862;22;20061;-91
2022/07/12 13:12:43;;;;;;;0.10;0.10;;;;;;;;;;6254312;22;20022;-92
2022/07/12 13:15:09;;;;;;;0.20;0.20;;;;;;;;;;6229413;22;20015;-90
2022/07/12 13:17:35;;;;;;;0.20;0.20;;;;;;;;;;6254115;22;20452;-90
2022/07/12 13:20:01;;;;;;;0.20;0.20;;;;;;;;;;6279678;22;20042;-90
2022/07/12 13:22:27;;;;;;;0.15;0.15;;;;;;;;;;6254346;22;20379;-89
2022/07/12 13:24:53;;;;;;;0.20;0.20;;;;;;;;;;6279442;22;20011;-89
2022/07/12 13:27:19;;;;;;;0.20;0.20;;;;;;;;;;6229230;22;20396;-89
2022/07/12 13:29:45;;;;;;;0.20;0.20;;;;;;;;;;6253945;22;20077;-89
2022/07/12 13:32:11;;;;;;;0.20;0.20;;;;;;;;;;6230929;22;20027;-90
2022/07/12 13:34:37;;;;;;;0.20;0.20;;;;;;;;;;6230729;22;20427;-90
2022/07/12 13:37:03;;;;;;;0.20;0.20;;;;;;;;;;6263550;22;20091;-89
2022/07/12 13:42:13;;;;;;;0.20;0.20;;;;;;;;;;6257174;22;20019;-90
2022/07/12 13:44:39;;;;;;;0.20;0.20;;;;;;;;;;6231686;22;20341;-89
2022/07/12 13:47:05;;;;;;;0.20;0.20;;;;;;;;;;6254297;22;20018;-87
2022/07/12 13:49:31;;;;;;;0.20;0.20;;;;;;;;;;6280234;22;20054;-87
2022/07/12 13:51:58;;;;;;;0.20;0.20;;;;;;;;;;6235158;22;20094;-88
2022/07/12 13:54:24;;;;;;;0.20;0.20;;;;;;;;;;6249618;22;20022;-88
2022/07/12 13:56:50;;;;;;;0.20;0.20;;;;;;;;;;6247473;22;20015;-89
2022/07/12 13:59:16;;;;;;;0.20;0.20;;;;;;;;;;6272791;22;20021;-87
2022/07/12 14:01:42;;;;;;;0.20;0.20;;;;;;;;;;6290158;22;20016;-88
2022/07/12 14:04:07;;;;;;;0.20;0.20;;;;;;;;;;6266087;22;20046;-88
2022/07/12 14:06:36;;;;;;;0.20;0.20;;;;;;;;;;6263011;22;20082;-89
2022/07/12 14:09:02;;;;;;;0.20;0.20;;;;;;;;;;6291489;22;20018;-86
2022/07/12 14:11:28;;;;;;;0.20;0.20;;;;;;;;;;6258779;22;20452;-89
2022/07/12 14:13:54;;;;;;;0.10;0.10;;;;;;;;;;6256684;22;20094;-88
2022/07/12 14:16:21;;;;;;;0.20;0.20;;;;;;;;;;6259366;22;20084;-89
2022/07/12 14:18:47;;;;;;;0.10;0.10;;;;;;;;;;6279792;22;20104;-89
2022/07/12 14:21:13;;;;;;;0.20;0.20;;;;;;;;;;6253612;22;20015;-89
2022/07/12 14:23:40;;;;;;;0.10;0.10;;;;;;;;;;6253570;22;20022;-88
2022/07/12 14:26:07;;;;;;;0.20;0.20;;;;;;;;;;6253175;22;20308;-88
2022/07/12 14:28:33;;;;;;;0.20;0.20;;;;;;;;;;6278516;22;20434;-88
2022/07/12 14:30:59;;;;;;;0.20;0.20;;;;;;;;;;6253337;22;20082;-86
2022/07/12 14:33:28;;;;;;;0.20;0.20;;;;;;;;;;6253645;22;20015;-87
2022/07/12 14:35:54;;;;;;;0.20;0.20;;;;;;;;;;6278864;22;20011;-87
2022/07/12 14:38:20;;;;;;;0.20;0.20;;;;;;;;;;6278642;22;20103;-89
2022/07/12 14:40:46;;;;;;;0.20;0.20;;;;;;;;;;6253250;22;20017;-90
2022/07/12 14:43:12;;;;;;;0.20;0.20;;;;;;;;;;6253249;22;20026;-89
2022/07/12 14:45:38;;;;;;;0.10;0.10;;;;;;;;;;6280608;22;20011;-90
2022/07/12 14:48:04;;;;;;;0.13;0.13;;;;;;;;;;6255187;22;20007;-90
2022/07/12 14:50:30;;;;;;;0.20;0.20;;;;;;;;;;6255238;22;20328;-91
2022/07/12 14:52:56;;;;;;;0.20;0.20;;;;;;;;;;6230058;22;20015;-91
2022/07/12 14:55:22;;;;;;;0.20;0.20;;;;;;;;;;6255368;22;20444;-89
2022/07/12 14:57:48;;;;;;;0.15;0.15;;;;;;;;;;6230105;22;20019;-90